createdAt,value
2018-05-31T00:00:07.681Z,20.22
2018-05-31T00:02:34.692Z,20.05
2018-05-31T00:05:01.211Z,19.97
2018-05-31T00:07:28.009Z,19.95
2018-05-31T00:09:54.525Z,19.90
2018-05-31T00:12:21.127Z,19.85
2018-05-31T00:14:47.701Z,19.79
2018-05-31T00:17:14.337Z,19.77
2018-05-31T00:19:40.863Z,19.74
2018-05-31T00:22:07.489Z,19.69
2018-05-31T00:24:34.069Z,19.65
2018-05-31T00:27:00.642Z,19.59
2018-05-31T00:29:27.351Z,19.55
2018-05-31T00:31:54.060Z,19.51
2018-05-31T00:34:20.589Z,19.39
2018-05-31T00:36:47.184Z,19.41
2018-05-31T00:39:13.985Z,19.40
2018-05-31T00:41:40.717Z,19.39
2018-05-31T00:44:07.388Z,19.33
2018-05-31T00:46:34.044Z,19.27
2018-05-31T00:49:00.830Z,19.24
2018-05-31T00:51:27.614Z,19.20
2018-05-31T00:53:54.248Z,19.11
2018-05-31T00:56:20.920Z,19.13
2018-05-31T00:58:47.509Z,19.09
2018-05-31T01:01:14.264Z,19.12
2018-05-31T01:03:41.097Z,19.14
2018-05-31T01:06:07.649Z,19.09
2018-05-31T01:08:34.177Z,19.10
2018-05-31T01:11:00.737Z,19.17
2018-05-31T01:13:27.244Z,19.11
2018-05-31T01:18:34.913Z,19.04
2018-05-31T01:21:01.492Z,19.05
2018-05-31T01:23:28.120Z,18.99
2018-05-31T01:25:54.704Z,18.92
2018-05-31T01:28:21.289Z,18.92
2018-05-31T01:30:47.904Z,18.96
2018-05-31T01:33:14.551Z,18.94
2018-05-31T01:35:41.077Z,18.89
2018-05-31T01:38:19.725Z,18.89
2018-05-31T01:40:46.280Z,18.86
2018-05-31T01:43:12.868Z,18.81
2018-05-31T01:45:39.431Z,18.77
2018-05-31T01:48:06.076Z,18.68
2018-05-31T01:50:32.713Z,18.71
2018-05-31T01:52:59.301Z,18.69
2018-05-31T01:55:25.936Z,18.63
2018-05-31T01:57:52.649Z,18.55
2018-05-31T02:00:19.201Z,18.49
2018-05-31T02:02:45.802Z,18.46
2018-05-31T02:05:12.300Z,18.37
2018-05-31T02:07:39.010Z,18.38
2018-05-31T02:10:05.685Z,18.34
2018-05-31T02:12:32.285Z,18.33
2018-05-31T02:14:59.416Z,18.29
2018-05-31T02:17:26.014Z,18.29
2018-05-31T02:19:52.570Z,18.20
2018-05-31T02:22:19.101Z,18.20
2018-05-31T02:24:45.721Z,18.16
2018-05-31T02:27:12.247Z,18.12
2018-05-31T02:29:38.826Z,18.07
2018-05-31T02:32:05.352Z,18.05
2018-05-31T02:34:47.020Z,18.00
2018-05-31T02:37:13.579Z,17.95
2018-05-31T02:39:40.169Z,17.87
2018-05-31T02:42:06.900Z,17.88
2018-05-31T02:44:33.399Z,17.84
2018-05-31T02:47:00.029Z,17.83
2018-05-31T02:49:26.682Z,17.81
2018-05-31T02:51:53.335Z,17.82
2018-05-31T02:54:19.872Z,17.80
2018-05-31T02:56:46.404Z,17.77
2018-05-31T02:59:13.202Z,17.76
2018-05-31T03:01:39.911Z,17.70
2018-05-31T03:04:06.529Z,17.76
2018-05-31T03:06:33.145Z,17.79
2018-05-31T03:09:00.059Z,17.77
2018-05-31T03:11:26.643Z,17.76
2018-05-31T03:13:54.050Z,17.76
2018-05-31T03:16:21.835Z,17.72
2018-05-31T03:23:09.430Z,17.73
2018-05-31T03:25:37.760Z,17.77
2018-05-31T03:28:05.273Z,17.86
2018-05-31T03:30:31.831Z,17.91
2018-05-31T03:32:58.345Z,17.93
2018-05-31T03:35:24.857Z,17.88
2018-05-31T03:37:51.588Z,17.95
2018-05-31T03:40:18.328Z,17.99
2018-05-31T03:42:44.997Z,18.26
2018-05-31T03:45:11.885Z,18.39
2018-05-31T03:47:38.470Z,18.38
2018-05-31T03:50:10.832Z,18.32
2018-05-31T03:52:39.527Z,18.23
2018-05-31T03:55:06.287Z,18.20
2018-05-31T03:57:33.305Z,18.19
2018-05-31T03:59:59.984Z,18.23
2018-05-31T04:02:26.642Z,18.24
2018-05-31T04:04:53.337Z,18.27
2018-05-31T04:07:20.094Z,18.23
2018-05-31T04:09:46.849Z,18.34
2018-05-31T04:12:13.670Z,18.38
2018-05-31T04:14:40.487Z,18.42
2018-05-31T04:17:07.333Z,18.41
2018-05-31T04:19:34.186Z,18.50
2018-05-31T04:22:01.005Z,18.57
2018-05-31T04:24:28.682Z,18.65
2018-05-31T04:26:57.242Z,18.74
2018-05-31T04:29:25.495Z,18.80
2018-05-31T04:31:58.786Z,18.85
2018-05-31T04:34:27.481Z,18.90
2018-05-31T04:36:55.661Z,18.98
2018-05-31T04:39:23.381Z,19.01
2018-05-31T04:41:50.226Z,19.04
2018-05-31T04:44:17.005Z,19.04
2018-05-31T04:46:43.964Z,19.10
2018-05-31T04:49:12.156Z,19.17
2018-05-31T04:51:39.069Z,19.22
2018-05-31T04:54:06.597Z,19.31
2018-05-31T04:56:34.112Z,19.31
2018-05-31T04:59:01.285Z,19.41
2018-05-31T05:01:28.266Z,19.53
2018-05-31T05:03:58.765Z,19.62
2018-05-31T05:06:25.432Z,19.63
2018-05-31T05:08:52.205Z,19.72
2018-05-31T05:11:19.344Z,19.78
2018-05-31T05:13:45.929Z,19.74
2018-05-31T05:16:12.636Z,20.02
2018-05-31T05:21:12.596Z,20.82
2018-05-31T05:23:39.180Z,21.25
2018-05-31T05:26:05.789Z,21.57
2018-05-31T05:28:32.464Z,21.88
2018-05-31T05:30:59.049Z,22.10
2018-05-31T05:33:25.706Z,22.15
2018-05-31T05:35:52.305Z,22.30
2018-05-31T05:38:18.859Z,22.45
2018-05-31T05:40:45.341Z,22.47
2018-05-31T05:43:11.919Z,22.62
2018-05-31T05:45:38.664Z,22.72
2018-05-31T05:48:05.249Z,22.76
2018-05-31T05:50:31.800Z,22.82
2018-05-31T05:53:05.368Z,22.89
2018-05-31T05:55:31.988Z,22.56
2018-05-31T05:57:58.545Z,22.70
2018-05-31T06:00:25.166Z,22.85
2018-05-31T06:02:51.728Z,23.00
2018-05-31T06:05:18.224Z,23.01
2018-05-31T06:07:44.793Z,23.06
2018-05-31T06:10:11.444Z,23.08
2018-05-31T06:12:38.029Z,23.12
2018-05-31T06:15:04.981Z,23.17
2018-05-31T06:17:31.678Z,23.17
2018-05-31T06:19:58.437Z,23.12
2018-05-31T06:22:25.031Z,22.99
2018-05-31T06:24:51.629Z,22.95
2018-05-31T06:27:18.208Z,22.79
2018-05-31T06:29:44.790Z,22.59
2018-05-31T06:32:11.374Z,22.40
2018-05-31T06:34:37.952Z,22.41
2018-05-31T06:37:04.550Z,22.48
2018-05-31T06:39:31.205Z,22.14
2018-05-31T06:41:57.713Z,22.28
2018-05-31T06:44:24.345Z,22.38
2018-05-31T06:46:51.065Z,22.54
2018-05-31T06:49:17.860Z,22.75
2018-05-31T06:51:44.570Z,22.77
2018-05-31T06:54:11.237Z,22.91
2018-05-31T06:56:37.797Z,22.79
2018-05-31T06:59:04.319Z,22.84
2018-05-31T07:01:30.853Z,23.01
2018-05-31T07:03:57.428Z,22.96
2018-05-31T07:06:23.956Z,22.92
2018-05-31T07:08:50.449Z,22.80
2018-05-31T07:11:17.008Z,23.07
2018-05-31T07:13:43.815Z,23.22
2018-05-31T07:16:10.417Z,23.22
2018-05-31T07:18:37.149Z,23.28
2018-05-31T07:21:03.737Z,23.34
2018-05-31T07:23:30.232Z,23.44
2018-05-31T07:25:56.836Z,23.35
2018-05-31T07:28:23.384Z,23.44
2018-05-31T07:40:02.448Z,23.61
2018-05-31T07:42:29.006Z,23.73
2018-05-31T07:44:55.581Z,23.67
2018-05-31T07:47:22.205Z,23.60
2018-05-31T07:49:48.756Z,23.88
2018-05-31T07:52:15.305Z,23.95
2018-05-31T07:54:41.866Z,23.93
2018-05-31T07:57:08.448Z,24.01
2018-05-31T07:59:34.965Z,24.14
2018-05-31T08:02:01.636Z,23.99
2018-05-31T08:04:28.342Z,24.15
2018-05-31T08:06:54.892Z,24.23
2018-05-31T08:09:21.451Z,24.37
2018-05-31T08:11:48.149Z,24.29
2018-05-31T08:14:14.720Z,24.41
2018-05-31T08:16:41.237Z,24.37
2018-05-31T08:19:07.768Z,24.43
2018-05-31T08:21:34.429Z,24.42
2018-05-31T08:24:01.096Z,24.48
2018-05-31T08:26:27.614Z,24.54
2018-05-31T08:28:54.257Z,24.49
2018-05-31T08:31:27.808Z,24.49
2018-05-31T08:33:54.278Z,24.58
2018-05-31T08:36:20.956Z,24.67
2018-05-31T08:38:47.760Z,24.71
2018-05-31T08:41:14.385Z,24.63
2018-05-31T08:43:41.021Z,24.74
2018-05-31T08:46:07.658Z,24.63
2018-05-31T08:48:34.181Z,24.70
2018-05-31T08:51:00.813Z,24.76
2018-05-31T08:53:27.470Z,24.72
2018-05-31T08:55:54.016Z,24.61
2018-05-31T08:58:20.564Z,24.63
2018-05-31T09:00:47.038Z,24.74
2018-05-31T09:03:13.601Z,24.80
2018-05-31T09:05:40.213Z,24.83
2018-05-31T09:08:06.789Z,24.93
2018-05-31T09:10:33.357Z,24.92
2018-05-31T09:12:59.962Z,24.93
2018-05-31T09:15:33.687Z,24.97
2018-05-31T09:18:00.226Z,24.92
2018-05-31T09:20:26.841Z,24.94
2018-05-31T09:22:53.384Z,24.95
2018-05-31T09:25:20.048Z,25.05
2018-05-31T09:27:46.556Z,25.10
2018-05-31T09:30:13.064Z,25.00
2018-05-31T09:32:39.608Z,25.11
2018-05-31T09:35:06.275Z,25.18
2018-05-31T09:37:33.002Z,25.13
2018-05-31T09:39:59.561Z,25.16
2018-05-31T09:42:33.057Z,25.26
2018-05-31T09:44:59.688Z,25.28
2018-05-31T09:47:26.164Z,25.28
2018-05-31T09:49:52.673Z,25.31
2018-05-31T09:52:19.196Z,25.34
2018-05-31T09:54:45.791Z,25.34
2018-05-31T09:57:12.573Z,25.32
2018-05-31T09:59:39.142Z,25.21
2018-05-31T10:02:05.695Z,25.26
2018-05-31T10:04:39.317Z,25.28
2018-05-31T10:07:05.901Z,25.29
2018-05-31T10:09:32.593Z,25.24
2018-05-31T10:11:59.221Z,25.30
2018-05-31T10:14:25.812Z,25.29
2018-05-31T10:16:52.808Z,25.25
2018-05-31T10:19:19.460Z,25.25
2018-05-31T10:21:46.106Z,25.33
2018-05-31T10:24:12.774Z,25.38
2018-05-31T10:26:39.476Z,25.46
2018-05-31T10:29:05.939Z,25.51
2018-05-31T10:31:32.475Z,25.55
2018-05-31T10:33:59.093Z,25.59
2018-05-31T10:36:25.695Z,25.55
2018-05-31T10:38:52.350Z,25.61
2018-05-31T10:41:18.987Z,25.66
2018-05-31T10:43:45.648Z,25.63
2018-05-31T10:46:12.288Z,25.65
2018-05-31T10:48:38.909Z,25.71
2018-05-31T10:51:05.515Z,25.77
2018-05-31T10:53:32.091Z,25.65
2018-05-31T10:55:58.755Z,25.68
2018-05-31T10:58:25.271Z,25.78
2018-05-31T11:00:51.789Z,25.80
2018-05-31T11:03:18.421Z,25.85
2018-05-31T11:05:45.087Z,25.88
2018-05-31T11:08:11.725Z,25.94
2018-05-31T11:10:38.265Z,25.99
2018-05-31T11:13:04.814Z,26.02
2018-05-31T11:15:31.337Z,26.04
2018-05-31T11:17:57.877Z,26.10
2018-05-31T11:20:24.734Z,26.10
2018-05-31T11:22:51.381Z,26.05
2018-05-31T11:25:17.875Z,26.11
2018-05-31T11:27:44.652Z,26.12
2018-05-31T11:30:11.315Z,26.22
2018-05-31T11:32:37.948Z,26.14
2018-05-31T11:35:04.606Z,26.09
2018-05-31T11:37:31.208Z,26.17
2018-05-31T11:39:57.797Z,26.09
2018-05-31T11:42:24.350Z,26.23
2018-05-31T11:44:50.870Z,26.28
2018-05-31T11:47:17.637Z,26.27
2018-05-31T11:49:44.422Z,26.34
2018-05-31T11:52:11.063Z,26.35
2018-05-31T11:54:37.642Z,26.33
2018-05-31T11:57:04.382Z,26.44
2018-05-31T11:59:30.970Z,26.40
2018-05-31T12:01:57.600Z,26.40
2018-05-31T12:04:24.168Z,26.42
2018-05-31T12:07:02.417Z,26.40
2018-05-31T12:09:30.004Z,26.45
2018-05-31T12:11:56.673Z,26.44
2018-05-31T12:14:23.145Z,26.52
2018-05-31T12:16:49.757Z,26.55
2018-05-31T12:19:16.499Z,26.58
2018-05-31T12:21:50.258Z,26.62
2018-05-31T12:24:17.001Z,26.60
2018-05-31T12:26:43.644Z,26.58
2018-05-31T12:29:10.165Z,26.56
2018-05-31T12:31:36.762Z,26.60
2018-05-31T12:34:03.314Z,26.52
2018-05-31T12:36:29.935Z,26.51
2018-05-31T12:38:56.592Z,26.52
2018-05-31T12:41:23.253Z,26.60
2018-05-31T12:43:49.789Z,26.64
2018-05-31T12:46:16.620Z,26.70
2018-05-31T12:48:43.410Z,26.70
2018-05-31T12:51:09.984Z,26.73
2018-05-31T12:53:36.584Z,26.80
2018-05-31T12:56:03.081Z,26.80
2018-05-31T12:58:29.612Z,26.71
2018-05-31T13:00:56.328Z,26.76
2018-05-31T13:03:22.842Z,26.90
2018-05-31T13:05:49.430Z,26.99
2018-05-31T13:08:16.001Z,26.95
2018-05-31T13:10:42.596Z,26.97
2018-05-31T13:13:09.093Z,26.94
2018-05-31T13:15:35.645Z,26.89
2018-05-31T13:18:02.248Z,26.99
2018-05-31T13:20:28.788Z,27.01
2018-05-31T13:22:55.359Z,26.98
2018-05-31T13:25:22.018Z,27.00
2018-05-31T13:27:48.552Z,27.01
2018-05-31T13:30:15.166Z,27.09
2018-05-31T13:32:41.639Z,27.10
2018-05-31T13:35:08.204Z,27.07
2018-05-31T13:37:34.961Z,27.16
2018-05-31T13:40:01.601Z,27.23
2018-05-31T13:42:28.315Z,27.24
2018-05-31T13:44:54.983Z,27.30
2018-05-31T13:47:21.440Z,27.24
2018-05-31T13:49:48.001Z,27.21
2018-05-31T13:52:14.669Z,27.24
2018-05-31T13:54:41.205Z,27.30
2018-05-31T13:57:07.797Z,27.30
2018-05-31T13:59:34.301Z,27.28
2018-05-31T14:02:00.905Z,27.19
2018-05-31T14:04:27.453Z,27.16
2018-05-31T14:06:54.260Z,27.21
2018-05-31T14:09:20.921Z,27.23
2018-05-31T14:11:47.497Z,27.34
2018-05-31T14:14:14.002Z,27.35
2018-05-31T14:16:40.593Z,27.39
2018-05-31T14:19:07.173Z,27.34
2018-05-31T14:21:33.662Z,27.35
2018-05-31T14:24:00.193Z,27.37
2018-05-31T14:26:26.788Z,27.41
2018-05-31T14:28:53.565Z,27.42
2018-05-31T14:31:20.237Z,27.52
2018-05-31T14:33:46.802Z,27.50
2018-05-31T14:36:13.401Z,27.59
2018-05-31T14:38:39.991Z,27.43
2018-05-31T14:41:06.504Z,27.53
2018-05-31T14:43:33.137Z,27.60
2018-05-31T14:45:59.652Z,27.55
2018-05-31T14:48:26.277Z,27.51
2018-05-31T14:50:52.781Z,27.57
2018-05-31T14:53:19.416Z,27.61
2018-05-31T14:55:45.900Z,27.54
2018-05-31T14:58:12.384Z,27.60
2018-05-31T15:03:19.873Z,27.62
2018-05-31T15:05:46.541Z,27.55
2018-05-31T15:08:13.059Z,27.50
2018-05-31T15:10:39.878Z,27.49
2018-05-31T15:13:06.498Z,27.52
2018-05-31T15:15:33.041Z,27.53
2018-05-31T15:17:59.615Z,27.48
2018-05-31T15:20:26.396Z,27.49
2018-05-31T15:22:53.108Z,27.43
2018-05-31T15:25:19.629Z,27.38
2018-05-31T15:27:49.787Z,27.36
2018-05-31T15:30:16.738Z,27.32
2018-05-31T15:32:44.061Z,27.27
2018-05-31T15:35:17.212Z,27.27
2018-05-31T15:37:43.824Z,27.28
2018-05-31T15:40:10.550Z,27.31
2018-05-31T15:42:37.213Z,27.30
2018-05-31T15:45:03.921Z,27.31
2018-05-31T15:47:30.593Z,27.32
2018-05-31T15:49:57.517Z,27.26
2018-05-31T15:52:24.333Z,27.23
2018-05-31T15:54:50.833Z,27.19
2018-05-31T15:57:17.629Z,27.14
2018-05-31T15:59:44.381Z,27.19
2018-05-31T16:02:11.106Z,27.19
2018-05-31T16:04:37.684Z,27.18
2018-05-31T16:07:04.908Z,27.23
2018-05-31T16:09:32.648Z,27.18
2018-05-31T16:12:00.335Z,27.16
2018-05-31T16:14:29.110Z,27.19
2018-05-31T16:16:55.657Z,27.22
2018-05-31T16:19:22.428Z,27.27
2018-05-31T16:25:09.017Z,27.11
2018-05-31T16:27:38.433Z,27.02
2018-05-31T16:30:06.056Z,26.92
2018-05-31T16:32:40.907Z,26.85
2018-05-31T16:35:28.749Z,26.77
2018-05-31T16:37:56.337Z,26.62
2018-05-31T16:40:23.921Z,26.72
2018-05-31T16:42:51.220Z,26.74
2018-05-31T16:45:20.665Z,26.75
2018-05-31T16:47:47.410Z,26.69
2018-05-31T16:50:15.177Z,26.77
2018-05-31T16:52:41.991Z,26.70
2018-05-31T16:55:08.736Z,26.55
2018-05-31T16:57:35.597Z,26.36
2018-05-31T17:00:02.327Z,26.46
2018-05-31T17:02:29.062Z,26.46
2018-05-31T17:04:55.610Z,26.40
2018-05-31T17:07:22.165Z,26.38
2018-05-31T17:09:48.780Z,26.36
2018-05-31T17:12:15.433Z,26.18
2018-05-31T17:14:42.099Z,26.24
2018-05-31T17:17:09.683Z,26.17
2018-05-31T17:19:36.309Z,26.17
2018-05-31T17:22:03.145Z,26.17
2018-05-31T17:24:29.973Z,26.16
2018-05-31T17:26:56.576Z,26.13
2018-05-31T17:29:23.319Z,26.02
2018-05-31T17:31:49.998Z,26.00
2018-05-31T17:34:17.549Z,25.99
2018-05-31T17:36:45.928Z,25.93
2018-05-31T17:39:17.074Z,25.81
2018-05-31T17:41:43.760Z,25.83
2018-05-31T17:44:10.343Z,25.70
2018-05-31T17:46:37.178Z,25.64
2018-05-31T17:49:03.928Z,25.59
2018-05-31T17:51:30.438Z,25.55
2018-05-31T17:53:56.996Z,25.53
2018-05-31T17:56:23.600Z,25.52
2018-05-31T17:58:50.525Z,25.45
2018-05-31T18:01:17.181Z,25.39
2018-05-31T18:03:43.816Z,25.37
2018-05-31T18:06:10.575Z,25.33
2018-05-31T18:08:37.289Z,25.30
2018-05-31T18:11:03.795Z,25.28
2018-05-31T18:13:30.373Z,25.12
2018-05-31T18:15:57.192Z,25.18
2018-05-31T18:18:23.853Z,25.12
2018-05-31T18:20:50.488Z,25.10
2018-05-31T18:23:17.059Z,25.09
2018-05-31T18:25:44.450Z,25.06
2018-05-31T18:28:11.233Z,25.06
2018-05-31T18:30:38.431Z,25.01
2018-05-31T18:33:05.205Z,24.86
2018-05-31T18:35:32.550Z,24.86
2018-05-31T18:37:59.217Z,24.87
2018-05-31T18:40:26.134Z,24.86
2018-05-31T18:42:56.090Z,24.84
2018-05-31T18:45:22.991Z,24.85
2018-05-31T18:47:49.689Z,24.80
2018-05-31T18:50:16.280Z,24.77
2018-05-31T18:52:42.951Z,24.55
2018-05-31T18:55:09.888Z,24.61
2018-05-31T18:57:36.999Z,24.57
2018-05-31T19:00:03.757Z,24.56
2018-05-31T19:02:30.380Z,24.53
2018-05-31T19:04:57.083Z,24.41
2018-05-31T19:07:25.702Z,24.44
2018-05-31T19:09:52.269Z,24.38
2018-05-31T19:12:24.910Z,24.32
2018-05-31T19:14:51.612Z,24.23
2018-05-31T19:17:18.453Z,24.19
2018-05-31T19:19:51.114Z,24.13
2018-05-31T19:22:17.758Z,24.05
2018-05-31T19:27:50.790Z,23.89
2018-05-31T19:33:55.466Z,23.73
2018-05-31T19:36:28.126Z,23.63
2018-05-31T19:38:54.715Z,23.48
2018-05-31T19:41:21.525Z,23.48
2018-05-31T19:43:54.089Z,23.41
2018-05-31T19:46:20.697Z,23.34
2018-05-31T19:48:47.171Z,23.30
2018-05-31T19:51:19.825Z,23.26
2018-05-31T19:53:46.680Z,23.20
2018-05-31T19:56:13.495Z,23.14
2018-05-31T19:58:46.217Z,23.03
2018-05-31T20:01:18.716Z,22.93
2018-05-31T20:03:45.293Z,22.90
2018-05-31T20:06:11.800Z,22.76
2018-05-31T20:08:39.265Z,22.77
2018-05-31T20:11:06.213Z,22.65
2018-05-31T20:13:35.761Z,22.58
2018-05-31T20:16:06.563Z,22.56
2018-05-31T20:18:33.458Z,22.49
2018-05-31T20:21:00.130Z,22.46
2018-05-31T20:23:26.809Z,22.44
2018-05-31T20:25:54.770Z,22.39
2018-05-31T20:28:24.681Z,22.36
2018-05-31T20:30:53.338Z,22.31
2018-05-31T20:33:19.994Z,22.26
2018-05-31T20:35:48.800Z,22.16
2018-05-31T20:38:15.462Z,22.13
2018-05-31T20:40:45.048Z,22.08
2018-05-31T20:43:12.223Z,22.06
2018-05-31T20:45:38.863Z,21.97
2018-05-31T20:48:05.680Z,21.92
2018-05-31T20:50:32.234Z,21.86
2018-05-31T20:52:59.373Z,21.79
2018-05-31T20:55:26.881Z,21.75
2018-05-31T20:57:55.253Z,21.73
2018-05-31T21:00:22.258Z,21.69
2018-05-31T21:02:50.127Z,21.59
2018-05-31T21:05:17.219Z,21.56
2018-05-31T21:07:44.005Z,21.50
2018-05-31T21:10:10.753Z,21.50
2018-05-31T21:12:37.426Z,21.48
2018-05-31T21:15:07.193Z,21.43
2018-05-31T21:17:34.011Z,21.39
2018-05-31T21:20:00.971Z,21.35
2018-05-31T21:22:27.520Z,21.24
2018-05-31T21:24:54.062Z,21.24
2018-05-31T21:27:20.624Z,21.26
2018-05-31T21:29:47.439Z,21.19
2018-05-31T21:32:14.306Z,21.20
2018-05-31T21:34:41.217Z,21.15
2018-05-31T21:37:07.797Z,21.07
2018-05-31T21:39:34.812Z,21.10
2018-05-31T21:42:01.461Z,21.05
2018-05-31T21:44:28.092Z,21.06
2018-05-31T21:46:54.766Z,21.00
2018-05-31T21:49:21.602Z,21.02
2018-05-31T21:51:48.216Z,21.01
2018-05-31T21:54:14.901Z,20.96
2018-05-31T21:56:41.596Z,20.94
2018-05-31T21:59:08.169Z,20.92
2018-05-31T22:01:35.404Z,20.90
2018-05-31T22:04:02.159Z,20.89
2018-05-31T22:06:29.009Z,20.84
2018-05-31T22:08:55.591Z,20.75
2018-05-31T22:11:22.369Z,20.73
2018-05-31T22:13:48.996Z,20.69
2018-05-31T22:16:15.496Z,20.64
2018-05-31T22:18:42.046Z,20.54
2018-05-31T22:21:08.554Z,20.56
2018-05-31T22:23:35.115Z,20.46
2018-05-31T22:26:01.777Z,20.50
2018-05-31T22:28:28.580Z,20.49
2018-05-31T22:30:55.371Z,20.45
2018-05-31T22:33:21.989Z,20.33
2018-05-31T22:35:49.052Z,20.25
2018-05-31T22:38:15.786Z,20.17
2018-05-31T22:40:42.352Z,20.10
2018-05-31T22:43:08.889Z,20.08
2018-05-31T22:45:35.353Z,20.11
2018-05-31T22:48:01.823Z,20.11
2018-05-31T22:50:28.434Z,20.09
2018-05-31T22:52:55.033Z,20.06
2018-05-31T22:55:21.691Z,20.05
2018-05-31T22:57:48.230Z,20.00
2018-05-31T23:00:14.825Z,19.99
2018-05-31T23:02:41.459Z,19.96
2018-05-31T23:05:08.111Z,19.92
2018-05-31T23:07:34.709Z,19.91
2018-05-31T23:10:01.280Z,19.85
2018-05-31T23:12:28.037Z,19.81
2018-05-31T23:14:54.553Z,19.78
2018-05-31T23:17:21.325Z,19.72
2018-05-31T23:19:48.055Z,19.67
2018-05-31T23:22:14.652Z,19.63
2018-05-31T23:24:41.248Z,19.58
2018-05-31T23:27:07.790Z,19.56
2018-05-31T23:29:34.360Z,19.52
2018-05-31T23:32:01.995Z,19.48
2018-05-31T23:34:28.762Z,19.52
2018-05-31T23:36:56.511Z,19.47
2018-05-31T23:39:23.786Z,19.39
2018-05-31T23:41:50.422Z,19.39
2018-05-31T23:44:17.210Z,19.20
2018-05-31T23:46:43.946Z,19.24
2018-05-31T23:49:10.594Z,19.12
2018-05-31T23:51:37.367Z,19.11
2018-05-31T23:54:04.139Z,19.15
2018-05-31T23:56:30.955Z,19.17
2018-05-31T23:58:57.485Z,19.15
